sensor_id;sensor_type;location;lat;lon;timestamp;P1;durP1;ratioP1;P2;durP2;ratioP2
65315;SDS011;51920;53.952;10.292;2024-01-06T00:01:05;6.57;;;3.95;;
65315;SDS011;51920;53.952;10.292;2024-01-06T00:03:37;5.20;;;3.53;;
65315;SDS011;51920;53.952;10.292;2024-01-06T00:06:04;7.78;;;4.43;;
65315;SDS011;51920;53.952;10.292;2024-01-06T00:08:31;6.40;;;3.40;;
65315;SDS011;51920;53.952;10.292;2024-01-06T00:10:58;7.45;;;4.40;;
65315;SDS011;51920;53.952;10.292;2024-01-06T00:13:25;8.35;;;4.57;;
65315;SDS011;51920;53.952;10.292;2024-01-06T00:15:52;7.57;;;4.20;;
65315;SDS011;51920;53.952;10.292;2024-01-06T00:18:19;7.18;;;4.25;;
65315;SDS011;51920;53.952;10.292;2024-01-06T00:20:46;7.57;;;4.07;;
65315;SDS011;51920;53.952;10.292;2024-01-06T00:23:12;6.75;;;3.97;;
65315;SDS011;51920;53.952;10.292;2024-01-06T00:25:39;7.57;;;4.45;;
65315;SDS011;51920;53.952;10.292;2024-01-06T00:28:06;5.63;;;3.65;;
65315;SDS011;51920;53.952;10.292;2024-01-06T00:30:33;4.13;;;3.03;;
65315;SDS011;51920;53.952;10.292;2024-01-06T00:32:59;7.67;;;3.93;;
65315;SDS011;51920;53.952;10.292;2024-01-06T00:35:28;6.45;;;3.67;;
65315;SDS011;51920;53.952;10.292;2024-01-06T00:37:55;6.82;;;4.38;;
65315;SDS011;51920;53.952;10.292;2024-01-06T00:40:22;8.25;;;4.30;;
65315;SDS011;51920;53.952;10.292;2024-01-06T00:42:48;6.28;;;4.05;;
65315;SDS011;51920;53.952;10.292;2024-01-06T00:45:15;5.73;;;3.60;;
65315;SDS011;51920;53.952;10.292;2024-01-06T00:47:42;6.93;;;4.18;;
65315;SDS011;51920;53.952;10.292;2024-01-06T00:50:09;6.97;;;4.30;;
65315;SDS011;51920;53.952;10.292;2024-01-06T00:52:36;6.57;;;4.05;;
65315;SDS011;51920;53.952;10.292;2024-01-06T00:55:03;7.78;;;4.55;;
65315;SDS011;51920;53.952;10.292;2024-01-06T00:57:30;6.60;;;4.03;;
65315;SDS011;51920;53.952;10.292;2024-01-06T00:59:57;6.97;;;3.95;;
65315;SDS011;51920;53.952;10.292;2024-01-06T01:02:24;6.63;;;3.92;;
65315;SDS011;51920;53.952;10.292;2024-01-06T01:04:51;8.23;;;4.30;;
65315;SDS011;51920;53.952;10.292;2024-01-06T01:07:19;9.20;;;4.90;;
65315;SDS011;51920;53.952;10.292;2024-01-06T01:09:45;8.57;;;4.57;;
65315;SDS011;51920;53.952;10.292;2024-01-06T01:12:12;9.23;;;4.80;;
65315;SDS011;51920;53.952;10.292;2024-01-06T01:14:39;9.00;;;5.22;;
65315;SDS011;51920;53.952;10.292;2024-01-06T01:17:06;9.95;;;4.80;;
65315;SDS011;51920;53.952;10.292;2024-01-06T01:19:33;8.38;;;4.55;;
65315;SDS011;51920;53.952;10.292;2024-01-06T01:21:59;8.73;;;4.43;;
65315;SDS011;51920;53.952;10.292;2024-01-06T01:24:27;9.45;;;4.43;;
65315;SDS011;51920;53.952;10.292;2024-01-06T01:26:53;6.63;;;4.13;;
65315;SDS011;51920;53.952;10.292;2024-01-06T01:29:20;8.23;;;5.13;;
65315;SDS011;51920;53.952;10.292;2024-01-06T01:31:47;9.40;;;4.65;;
65315;SDS011;51920;53.952;10.292;2024-01-06T01:34:14;9.97;;;4.80;;
65315;SDS011;51920;53.952;10.292;2024-01-06T01:36:41;8.80;;;4.75;;
65315;SDS011;51920;53.952;10.292;2024-01-06T01:39:08;9.30;;;5.25;;
65315;SDS011;51920;53.952;10.292;2024-01-06T01:41:34;7.53;;;4.63;;
65315;SDS011;51920;53.952;10.292;2024-01-06T01:44:01;8.73;;;4.72;;
65315;SDS011;51920;53.952;10.292;2024-01-06T01:46:29;9.67;;;4.40;;
65315;SDS011;51920;53.952;10.292;2024-01-06T01:48:57;10.48;;;5.20;;
65315;SDS011;51920;53.952;10.292;2024-01-06T01:51:29;9.77;;;4.97;;
65315;SDS011;51920;53.952;10.292;2024-01-06T01:53:59;6.40;;;3.65;;
65315;SDS011;51920;53.952;10.292;2024-01-06T01:56:29;10.00;;;5.15;;
65315;SDS011;51920;53.952;10.292;2024-01-06T01:59:01;7.37;;;4.23;;
65315;SDS011;51920;53.952;10.292;2024-01-06T02:01:32;8.18;;;4.70;;
65315;SDS011;51920;53.952;10.292;2024-01-06T02:04:00;9.07;;;4.53;;
65315;SDS011;51920;53.952;10.292;2024-01-06T02:06:32;9.00;;;4.90;;
65315;SDS011;51920;53.952;10.292;2024-01-06T02:08:58;7.28;;;4.55;;
65315;SDS011;51920;53.952;10.292;2024-01-06T02:11:25;9.67;;;4.63;;
65315;SDS011;51920;53.952;10.292;2024-01-06T02:13:52;9.65;;;5.07;;
65315;SDS011;51920;53.952;10.292;2024-01-06T02:16:19;9.27;;;4.78;;
65315;SDS011;51920;53.952;10.292;2024-01-06T02:18:46;8.23;;;5.00;;
65315;SDS011;51920;53.952;10.292;2024-01-06T02:21:13;7.82;;;4.55;;
65315;SDS011;51920;53.952;10.292;2024-01-06T02:23:41;10.57;;;5.30;;
65315;SDS011;51920;53.952;10.292;2024-01-06T02:26:07;8.35;;;4.88;;
65315;SDS011;51920;53.952;10.292;2024-01-06T02:28:35;10.52;;;4.90;;
65315;SDS011;51920;53.952;10.292;2024-01-06T02:31:02;6.00;;;3.95;;
65315;SDS011;51920;53.952;10.292;2024-01-06T02:33:30;12.95;;;5.78;;
65315;SDS011;51920;53.952;10.292;2024-01-06T02:35:57;11.10;;;5.03;;
65315;SDS011;51920;53.952;10.292;2024-01-06T02:38:23;8.90;;;5.13;;
65315;SDS011;51920;53.952;10.292;2024-01-06T02:40:50;8.52;;;5.32;;
65315;SDS011;51920;53.952;10.292;2024-01-06T02:43:17;9.32;;;5.18;;
65315;SDS011;51920;53.952;10.292;2024-01-06T02:45:44;11.48;;;5.57;;
65315;SDS011;51920;53.952;10.292;2024-01-06T02:48:13;10.40;;;5.23;;
65315;SDS011;51920;53.952;10.292;2024-01-06T02:50:40;13.02;;;6.00;;
65315;SDS011;51920;53.952;10.292;2024-01-06T02:53:07;7.50;;;4.40;;
65315;SDS011;51920;53.952;10.292;2024-01-06T02:55:33;9.18;;;5.32;;
65315;SDS011;51920;53.952;10.292;2024-01-06T02:58:00;11.40;;;5.30;;
65315;SDS011;51920;53.952;10.292;2024-01-06T03:00:27;8.97;;;5.27;;
65315;SDS011;51920;53.952;10.292;2024-01-06T03:02:54;9.95;;;5.60;;
65315;SDS011;51920;53.952;10.292;2024-01-06T03:05:20;8.60;;;4.90;;
65315;SDS011;51920;53.952;10.292;2024-01-06T03:07:47;9.25;;;5.47;;
65315;SDS011;51920;53.952;10.292;2024-01-06T03:10:14;12.05;;;5.93;;
65315;SDS011;51920;53.952;10.292;2024-01-06T03:12:41;9.37;;;4.47;;
65315;SDS011;51920;53.952;10.292;2024-01-06T03:15:08;10.32;;;5.25;;
65315;SDS011;51920;53.952;10.292;2024-01-06T03:17:35;11.40;;;5.25;;
65315;SDS011;51920;53.952;10.292;2024-01-06T03:20:02;10.85;;;5.88;;
65315;SDS011;51920;53.952;10.292;2024-01-06T03:22:30;9.93;;;5.35;;
65315;SDS011;51920;53.952;10.292;2024-01-06T03:24:57;10.43;;;5.40;;
65315;SDS011;51920;53.952;10.292;2024-01-06T03:27:24;8.52;;;4.82;;
65315;SDS011;51920;53.952;10.292;2024-01-06T03:29:51;10.60;;;5.35;;
65315;SDS011;51920;53.952;10.292;2024-01-06T03:32:18;11.18;;;5.82;;
65315;SDS011;51920;53.952;10.292;2024-01-06T03:34:44;11.55;;;5.78;;
65315;SDS011;51920;53.952;10.292;2024-01-06T03:37:11;9.10;;;4.37;;
65315;SDS011;51920;53.952;10.292;2024-01-06T03:39:38;9.40;;;5.05;;
65315;SDS011;51920;53.952;10.292;2024-01-06T03:42:05;11.50;;;5.97;;
65315;SDS011;51920;53.952;10.292;2024-01-06T03:44:32;7.75;;;4.47;;
65315;SDS011;51920;53.952;10.292;2024-01-06T03:47:00;10.00;;;5.93;;
65315;SDS011;51920;53.952;10.292;2024-01-06T03:49:27;13.03;;;6.30;;
65315;SDS011;51920;53.952;10.292;2024-01-06T03:51:54;11.23;;;5.80;;
65315;SDS011;51920;53.952;10.292;2024-01-06T03:54:21;10.90;;;5.78;;
65315;SDS011;51920;53.952;10.292;2024-01-06T03:56:49;10.88;;;4.82;;
65315;SDS011;51920;53.952;10.292;2024-01-06T03:59:16;11.98;;;5.25;;
65315;SDS011;51920;53.952;10.292;2024-01-06T04:01:43;13.33;;;5.40;;
65315;SDS011;51920;53.952;10.292;2024-01-06T04:04:10;10.95;;;5.32;;
65315;SDS011;51920;53.952;10.292;2024-01-06T04:06:36;9.32;;;5.32;;
65315;SDS011;51920;53.952;10.292;2024-01-06T04:09:03;13.02;;;5.60;;
65315;SDS011;51920;53.952;10.292;2024-01-06T04:11:30;9.77;;;5.82;;
65315;SDS011;51920;53.952;10.292;2024-01-06T04:13:57;8.70;;;5.27;;
65315;SDS011;51920;53.952;10.292;2024-01-06T04:16:25;13.93;;;6.32;;
65315;SDS011;51920;53.952;10.292;2024-01-06T04:18:52;11.35;;;5.78;;
65315;SDS011;51920;53.952;10.292;2024-01-06T04:21:19;12.55;;;6.15;;
65315;SDS011;51920;53.952;10.292;2024-01-06T04:23:46;9.68;;;5.43;;
65315;SDS011;51920;53.952;10.292;2024-01-06T04:26:13;11.70;;;5.80;;
65315;SDS011;51920;53.952;10.292;2024-01-06T04:28:39;11.23;;;5.75;;
65315;SDS011;51920;53.952;10.292;2024-01-06T04:31:06;14.45;;;5.80;;
65315;SDS011;51920;53.952;10.292;2024-01-06T04:33:35;12.05;;;6.18;;
65315;SDS011;51920;53.952;10.292;2024-01-06T04:36:03;12.25;;;5.72;;
65315;SDS011;51920;53.952;10.292;2024-01-06T04:38:30;13.50;;;6.20;;
65315;SDS011;51920;53.952;10.292;2024-01-06T04:40:57;10.95;;;5.68;;
65315;SDS011;51920;53.952;10.292;2024-01-06T04:43:24;6.97;;;4.25;;
65315;SDS011;51920;53.952;10.292;2024-01-06T04:45:50;12.73;;;6.18;;
65315;SDS011;51920;53.952;10.292;2024-01-06T04:48:17;9.93;;;4.95;;
65315;SDS011;51920;53.952;10.292;2024-01-06T04:50:44;9.67;;;4.70;;
65315;SDS011;51920;53.952;10.292;2024-01-06T04:53:11;10.00;;;4.90;;
65315;SDS011;51920;53.952;10.292;2024-01-06T04:55:38;9.15;;;5.28;;
65315;SDS011;51920;53.952;10.292;2024-01-06T04:58:05;11.30;;;5.93;;
65315;SDS011;51920;53.952;10.292;2024-01-06T05:00:31;12.23;;;6.18;;
65315;SDS011;51920;53.952;10.292;2024-01-06T05:02:58;11.43;;;5.50;;
65315;SDS011;51920;53.952;10.292;2024-01-06T05:05:25;8.80;;;5.15;;
65315;SDS011;51920;53.952;10.292;2024-01-06T05:07:52;10.20;;;5.80;;
65315;SDS011;51920;53.952;10.292;2024-01-06T05:10:19;11.82;;;5.50;;
65315;SDS011;51920;53.952;10.292;2024-01-06T05:12:46;8.95;;;4.85;;
65315;SDS011;51920;53.952;10.292;2024-01-06T05:15:12;9.57;;;5.30;;
65315;SDS011;51920;53.952;10.292;2024-01-06T05:17:39;12.07;;;4.47;;
65315;SDS011;51920;53.952;10.292;2024-01-06T05:20:06;8.52;;;4.53;;
65315;SDS011;51920;53.952;10.292;2024-01-06T05:22:33;10.60;;;4.97;;
65315;SDS011;51920;53.952;10.292;2024-01-06T05:25:00;9.15;;;5.07;;
65315;SDS011;51920;53.952;10.292;2024-01-06T05:27:27;8.73;;;5.03;;
65315;SDS011;51920;53.952;10.292;2024-01-06T05:29:54;10.30;;;5.57;;
65315;SDS011;51920;53.952;10.292;2024-01-06T05:32:21;12.90;;;6.20;;
65315;SDS011;51920;53.952;10.292;2024-01-06T05:34:48;8.25;;;4.55;;
65315;SDS011;51920;53.952;10.292;2024-01-06T05:37:15;12.25;;;5.72;;
65315;SDS011;51920;53.952;10.292;2024-01-06T05:39:42;10.93;;;5.53;;
65315;SDS011;51920;53.952;10.292;2024-01-06T05:42:09;11.48;;;5.47;;
65315;SDS011;51920;53.952;10.292;2024-01-06T05:44:39;11.55;;;5.68;;
65315;SDS011;51920;53.952;10.292;2024-01-06T05:47:06;9.77;;;5.20;;
65315;SDS011;51920;53.952;10.292;2024-01-06T05:49:34;12.70;;;6.20;;
65315;SDS011;51920;53.952;10.292;2024-01-06T05:52:01;10.80;;;5.57;;
65315;SDS011;51920;53.952;10.292;2024-01-06T05:54:28;10.77;;;6.10;;
65315;SDS011;51920;53.952;10.292;2024-01-06T05:56:55;8.50;;;4.60;;
65315;SDS011;51920;53.952;10.292;2024-01-06T05:59:22;10.13;;;5.32;;
65315;SDS011;51920;53.952;10.292;2024-01-06T06:01:49;11.82;;;5.28;;
65315;SDS011;51920;53.952;10.292;2024-01-06T06:04:16;11.77;;;6.30;;
65315;SDS011;51920;53.952;10.292;2024-01-06T06:06:42;9.43;;;5.07;;
65315;SDS011;51920;53.952;10.292;2024-01-06T06:09:09;7.93;;;4.60;;
65315;SDS011;51920;53.952;10.292;2024-01-06T06:11:36;6.82;;;3.78;;
65315;SDS011;51920;53.952;10.292;2024-01-06T06:14:03;10.07;;;5.50;;
65315;SDS011;51920;53.952;10.292;2024-01-06T06:16:31;12.53;;;5.53;;
65315;SDS011;51920;53.952;10.292;2024-01-06T06:18:58;11.48;;;5.13;;
65315;SDS011;51920;53.952;10.292;2024-01-06T06:21:25;11.52;;;5.40;;
65315;SDS011;51920;53.952;10.292;2024-01-06T06:23:52;9.55;;;4.60;;
65315;SDS011;51920;53.952;10.292;2024-01-06T06:26:19;10.65;;;4.43;;
65315;SDS011;51920;53.952;10.292;2024-01-06T06:28:45;12.17;;;5.30;;
65315;SDS011;51920;53.952;10.292;2024-01-06T06:31:12;11.57;;;5.53;;
65315;SDS011;51920;53.952;10.292;2024-01-06T06:33:39;8.73;;;5.03;;
65315;SDS011;51920;53.952;10.292;2024-01-06T06:36:06;11.65;;;5.00;;
65315;SDS011;51920;53.952;10.292;2024-01-06T06:38:33;9.27;;;5.22;;
65315;SDS011;51920;53.952;10.292;2024-01-06T06:41:00;12.57;;;5.10;;
65315;SDS011;51920;53.952;10.292;2024-01-06T06:43:28;8.63;;;4.60;;
65315;SDS011;51920;53.952;10.292;2024-01-06T06:45:55;7.90;;;4.75;;
65315;SDS011;51920;53.952;10.292;2024-01-06T06:48:22;9.25;;;4.10;;
65315;SDS011;51920;53.952;10.292;2024-01-06T06:50:49;10.30;;;5.03;;
65315;SDS011;51920;53.952;10.292;2024-01-06T06:53:16;9.73;;;4.60;;
65315;SDS011;51920;53.952;10.292;2024-01-06T06:55:43;7.50;;;4.38;;
65315;SDS011;51920;53.952;10.292;2024-01-06T06:58:10;9.15;;;5.13;;
65315;SDS011;51920;53.952;10.292;2024-01-06T07:00:36;12.82;;;4.70;;
65315;SDS011;51920;53.952;10.292;2024-01-06T07:03:04;10.25;;;5.13;;
65315;SDS011;51920;53.952;10.292;2024-01-06T07:05:31;11.73;;;5.50;;
65315;SDS011;51920;53.952;10.292;2024-01-06T07:08:00;11.90;;;4.68;;
65315;SDS011;51920;53.952;10.292;2024-01-06T07:10:29;12.10;;;5.60;;
65315;SDS011;51920;53.952;10.292;2024-01-06T07:12:58;11.55;;;4.97;;
65315;SDS011;51920;53.952;10.292;2024-01-06T07:15:29;11.13;;;5.70;;
65315;SDS011;51920;53.952;10.292;2024-01-06T07:17:56;8.63;;;4.70;;
65315;SDS011;51920;53.952;10.292;2024-01-06T07:20:23;11.07;;;5.28;;
65315;SDS011;51920;53.952;10.292;2024-01-06T07:22:50;9.43;;;5.13;;
65315;SDS011;51920;53.952;10.292;2024-01-06T07:25:17;9.95;;;4.82;;
65315;SDS011;51920;53.952;10.292;2024-01-06T07:27:43;11.43;;;5.72;;
65315;SDS011;51920;53.952;10.292;2024-01-06T07:30:10;11.30;;;5.80;;
65315;SDS011;51920;53.952;10.292;2024-01-06T07:32:37;12.38;;;5.47;;
65315;SDS011;51920;53.952;10.292;2024-01-06T07:35:04;11.27;;;5.22;;
65315;SDS011;51920;53.952;10.292;2024-01-06T07:37:32;10.63;;;5.47;;
65315;SDS011;51920;53.952;10.292;2024-01-06T07:39:59;11.43;;;5.70;;
65315;SDS011;51920;53.952;10.292;2024-01-06T07:42:26;7.30;;;3.90;;
65315;SDS011;51920;53.952;10.292;2024-01-06T07:44:52;11.93;;;5.18;;
65315;SDS011;51920;53.952;10.292;2024-01-06T07:47:19;13.77;;;5.40;;
65315;SDS011;51920;53.952;10.292;2024-01-06T07:49:46;10.55;;;5.68;;
65315;SDS011;51920;53.952;10.292;2024-01-06T07:52:14;9.00;;;4.60;;
65315;SDS011;51920;53.952;10.292;2024-01-06T07:54:41;10.73;;;5.07;;
65315;SDS011;51920;53.952;10.292;2024-01-06T07:57:08;10.90;;;5.38;;
65315;SDS011;51920;53.952;10.292;2024-01-06T07:59:35;10.13;;;5.30;;
65315;SDS011;51920;53.952;10.292;2024-01-06T08:02:01;9.02;;;4.38;;
65315;SDS011;51920;53.952;10.292;2024-01-06T08:04:28;8.73;;;4.57;;
65315;SDS011;51920;53.952;10.292;2024-01-06T08:06:55;9.63;;;5.07;;
65315;SDS011;51920;53.952;10.292;2024-01-06T08:09:24;9.55;;;5.28;;
65315;SDS011;51920;53.952;10.292;2024-01-06T08:11:51;10.82;;;4.97;;
65315;SDS011;51920;53.952;10.292;2024-01-06T08:14:19;10.57;;;5.57;;
65315;SDS011;51920;53.952;10.292;2024-01-06T08:16:46;11.93;;;5.57;;
65315;SDS011;51920;53.952;10.292;2024-01-06T08:19:13;9.50;;;4.70;;
65315;SDS011;51920;53.952;10.292;2024-01-06T08:21:40;11.20;;;5.35;;
65315;SDS011;51920;53.952;10.292;2024-01-06T08:24:07;11.05;;;5.40;;
65315;SDS011;51920;53.952;10.292;2024-01-06T08:26:34;11.30;;;5.30;;
65315;SDS011;51920;53.952;10.292;2024-01-06T08:29:02;10.85;;;5.40;;
65315;SDS011;51920;53.952;10.292;2024-01-06T08:31:29;10.57;;;4.80;;
65315;SDS011;51920;53.952;10.292;2024-01-06T08:33:58;12.40;;;5.20;;
65315;SDS011;51920;53.952;10.292;2024-01-06T08:36:29;11.18;;;5.20;;
65315;SDS011;51920;53.952;10.292;2024-01-06T08:38:56;9.43;;;5.00;;
65315;SDS011;51920;53.952;10.292;2024-01-06T08:41:23;12.02;;;5.05;;
65315;SDS011;51920;53.952;10.292;2024-01-06T08:43:50;6.63;;;3.57;;
65315;SDS011;51920;53.952;10.292;2024-01-06T08:46:17;9.90;;;5.07;;
65315;SDS011;51920;53.952;10.292;2024-01-06T08:48:44;11.38;;;4.95;;
65315;SDS011;51920;53.952;10.292;2024-01-06T08:51:11;9.43;;;4.30;;
65315;SDS011;51920;53.952;10.292;2024-01-06T08:53:38;8.50;;;4.63;;
65315;SDS011;51920;53.952;10.292;2024-01-06T08:56:05;8.70;;;4.40;;
65315;SDS011;51920;53.952;10.292;2024-01-06T08:58:32;6.03;;;3.42;;
65315;SDS011;51920;53.952;10.292;2024-01-06T09:00:59;9.05;;;4.55;;
65315;SDS011;51920;53.952;10.292;2024-01-06T09:03:27;8.68;;;4.07;;
65315;SDS011;51920;53.952;10.292;2024-01-06T09:05:55;10.55;;;4.82;;
65315;SDS011;51920;53.952;10.292;2024-01-06T09:08:23;7.80;;;4.53;;
65315;SDS011;51920;53.952;10.292;2024-01-06T09:10:50;11.77;;;4.85;;
65315;SDS011;51920;53.952;10.292;2024-01-06T09:13:18;5.88;;;3.67;;
65315;SDS011;51920;53.952;10.292;2024-01-06T09:15:45;8.88;;;4.15;;
65315;SDS011;51920;53.952;10.292;2024-01-06T09:18:12;9.70;;;4.53;;
65315;SDS011;51920;53.952;10.292;2024-01-06T09:20:40;7.53;;;3.97;;
65315;SDS011;51920;53.952;10.292;2024-01-06T09:23:06;8.73;;;4.13;;
65315;SDS011;51920;53.952;10.292;2024-01-06T09:25:33;7.60;;;3.92;;
65315;SDS011;51920;53.952;10.292;2024-01-06T09:28:00;5.90;;;3.80;;
65315;SDS011;51920;53.952;10.292;2024-01-06T09:30:28;8.13;;;3.80;;
65315;SDS011;51920;53.952;10.292;2024-01-06T09:32:55;8.03;;;4.03;;
65315;SDS011;51920;53.952;10.292;2024-01-06T09:35:21;6.53;;;3.88;;
65315;SDS011;51920;53.952;10.292;2024-01-06T09:37:48;4.95;;;3.03;;
65315;SDS011;51920;53.952;10.292;2024-01-06T09:40:18;5.80;;;3.25;;
65315;SDS011;51920;53.952;10.292;2024-01-06T09:42:50;6.53;;;3.53;;
65315;SDS011;51920;53.952;10.292;2024-01-06T09:45:18;6.67;;;3.60;;
65315;SDS011;51920;53.952;10.292;2024-01-06T09:47:46;7.07;;;3.85;;
65315;SDS011;51920;53.952;10.292;2024-01-06T09:50:17;7.07;;;4.15;;
65315;SDS011;51920;53.952;10.292;2024-01-06T09:52:48;7.95;;;3.38;;
65315;SDS011;51920;53.952;10.292;2024-01-06T09:55:24;6.57;;;3.70;;
65315;SDS011;51920;53.952;10.292;2024-01-06T09:57:55;7.07;;;3.03;;
65315;SDS011;51920;53.952;10.292;2024-01-06T10:00:22;5.30;;;3.50;;
65315;SDS011;51920;53.952;10.292;2024-01-06T10:02:49;4.72;;;3.28;;
65315;SDS011;51920;53.952;10.292;2024-01-06T10:05:17;4.53;;;2.90;;
65315;SDS011;51920;53.952;10.292;2024-01-06T10:07:44;6.63;;;3.40;;
65315;SDS011;51920;53.952;10.292;2024-01-06T10:10:12;4.10;;;2.47;;
65315;SDS011;51920;53.952;10.292;2024-01-06T10:12:40;4.68;;;2.97;;
65315;SDS011;51920;53.952;10.292;2024-01-06T10:15:08;5.05;;;3.42;;
65315;SDS011;51920;53.952;10.292;2024-01-06T10:17:36;4.38;;;2.85;;
65315;SDS011;51920;53.952;10.292;2024-01-06T10:20:07;4.40;;;2.70;;
65315;SDS011;51920;53.952;10.292;2024-01-06T10:22:38;4.93;;;3.10;;
65315;SDS011;51920;53.952;10.292;2024-01-06T10:25:08;5.22;;;2.38;;
65315;SDS011;51920;53.952;10.292;2024-01-06T10:27:37;3.97;;;2.45;;
65315;SDS011;51920;53.952;10.292;2024-01-06T10:30:06;4.40;;;2.75;;
65315;SDS011;51920;53.952;10.292;2024-01-06T10:32:33;4.95;;;3.38;;
65315;SDS011;51920;53.952;10.292;2024-01-06T10:35:09;4.97;;;2.50;;
65315;SDS011;51920;53.952;10.292;2024-01-06T10:37:36;4.07;;;2.65;;
65315;SDS011;51920;53.952;10.292;2024-01-06T10:42:43;5.30;;;2.75;;
65315;SDS011;51920;53.952;10.292;2024-01-06T10:45:12;4.30;;;2.88;;
65315;SDS011;51920;53.952;10.292;2024-01-06T10:47:41;5.03;;;2.67;;
65315;SDS011;51920;53.952;10.292;2024-01-06T10:50:09;4.50;;;2.53;;
65315;SDS011;51920;53.952;10.292;2024-01-06T10:52:37;3.17;;;2.50;;
65315;SDS011;51920;53.952;10.292;2024-01-06T10:55:05;3.55;;;2.85;;
65315;SDS011;51920;53.952;10.292;2024-01-06T10:57:32;3.88;;;3.13;;
65315;SDS011;51920;53.952;10.292;2024-01-06T11:00:00;5.63;;;2.73;;
65315;SDS011;51920;53.952;10.292;2024-01-06T11:02:27;5.53;;;3.10;;
65315;SDS011;51920;53.952;10.292;2024-01-06T11:04:55;3.92;;;3.00;;
65315;SDS011;51920;53.952;10.292;2024-01-06T11:07:22;6.60;;;2.88;;
65315;SDS011;51920;53.952;10.292;2024-01-06T11:12:25;6.63;;;2.97;;
65315;SDS011;51920;53.952;10.292;2024-01-06T11:14:54;4.20;;;2.72;;
65315;SDS011;51920;53.952;10.292;2024-01-06T11:17:48;3.45;;;2.97;;
65315;SDS011;51920;53.952;10.292;2024-01-06T11:20:16;3.60;;;2.47;;
65315;SDS011;51920;53.952;10.292;2024-01-06T11:22:43;4.78;;;2.95;;
65315;SDS011;51920;53.952;10.292;2024-01-06T11:25:16;4.60;;;3.03;;
65315;SDS011;51920;53.952;10.292;2024-01-06T11:27:46;6.32;;;2.90;;
65315;SDS011;51920;53.952;10.292;2024-01-06T11:32:47;3.80;;;2.85;;
65315;SDS011;51920;53.952;10.292;2024-01-06T11:35:15;3.13;;;2.30;;
65315;SDS011;51920;53.952;10.292;2024-01-06T11:40:15;4.10;;;2.40;;
65315;SDS011;51920;53.952;10.292;2024-01-06T11:43:09;2.47;;;2.28;;
65315;SDS011;51920;53.952;10.292;2024-01-06T11:45:40;4.20;;;2.60;;
65315;SDS011;51920;53.952;10.292;2024-01-06T11:48:11;3.03;;;2.20;;
65315;SDS011;51920;53.952;10.292;2024-01-06T11:50:41;3.30;;;2.30;;
65315;SDS011;51920;53.952;10.292;2024-01-06T11:53:08;4.15;;;2.30;;
65315;SDS011;51920;53.952;10.292;2024-01-06T11:55:38;3.78;;;2.65;;
65315;SDS011;51920;53.952;10.292;2024-01-06T11:58:07;6.40;;;3.08;;
65315;SDS011;51920;53.952;10.292;2024-01-06T12:00:34;3.65;;;2.33;;
65315;SDS011;51920;53.952;10.292;2024-01-06T12:03:06;4.00;;;2.40;;
65315;SDS011;51920;53.952;10.292;2024-01-06T12:05:33;4.57;;;3.10;;
65315;SDS011;51920;53.952;10.292;2024-01-06T12:08:00;4.55;;;3.10;;
65315;SDS011;51920;53.952;10.292;2024-01-06T12:10:29;4.18;;;2.90;;
65315;SDS011;51920;53.952;10.292;2024-01-06T12:13:04;4.40;;;2.97;;
65315;SDS011;51920;53.952;10.292;2024-01-06T12:15:34;4.23;;;2.63;;
65315;SDS011;51920;53.952;10.292;2024-01-06T12:18:04;3.88;;;2.42;;
65315;SDS011;51920;53.952;10.292;2024-01-06T12:20:32;3.85;;;2.70;;
65315;SDS011;51920;53.952;10.292;2024-01-06T12:22:59;4.30;;;2.67;;
65315;SDS011;51920;53.952;10.292;2024-01-06T12:25:28;6.07;;;3.10;;
65315;SDS011;51920;53.952;10.292;2024-01-06T12:27:55;5.33;;;2.80;;
65315;SDS011;51920;53.952;10.292;2024-01-06T12:30:22;5.05;;;2.80;;
65315;SDS011;51920;53.952;10.292;2024-01-06T12:32:50;4.50;;;2.38;;
65315;SDS011;51920;53.952;10.292;2024-01-06T12:35:19;3.28;;;2.25;;
65315;SDS011;51920;53.952;10.292;2024-01-06T12:37:47;4.07;;;2.90;;
65315;SDS011;51920;53.952;10.292;2024-01-06T12:40:15;4.50;;;2.80;;
65315;SDS011;51920;53.952;10.292;2024-01-06T12:42:43;4.00;;;2.75;;
65315;SDS011;51920;53.952;10.292;2024-01-06T12:45:11;4.80;;;3.10;;
65315;SDS011;51920;53.952;10.292;2024-01-06T12:47:39;4.07;;;2.90;;
65315;SDS011;51920;53.952;10.292;2024-01-06T12:50:06;3.03;;;2.22;;
65315;SDS011;51920;53.952;10.292;2024-01-06T12:52:34;4.93;;;3.10;;
65315;SDS011;51920;53.952;10.292;2024-01-06T12:55:01;5.53;;;3.17;;
65315;SDS011;51920;53.952;10.292;2024-01-06T12:57:29;5.03;;;3.05;;
65315;SDS011;51920;53.952;10.292;2024-01-06T12:59:56;4.03;;;3.05;;
65315;SDS011;51920;53.952;10.292;2024-01-06T13:02:24;7.45;;;3.58;;
65315;SDS011;51920;53.952;10.292;2024-01-06T13:04:50;3.93;;;3.10;;
65315;SDS011;51920;53.952;10.292;2024-01-06T13:07:17;3.95;;;2.80;;
65315;SDS011;51920;53.952;10.292;2024-01-06T13:09:48;5.20;;;3.20;;
65315;SDS011;51920;53.952;10.292;2024-01-06T13:12:15;5.50;;;3.38;;
65315;SDS011;51920;53.952;10.292;2024-01-06T13:14:45;6.65;;;3.20;;
65315;SDS011;51920;53.952;10.292;2024-01-06T13:17:13;4.77;;;2.67;;
65315;SDS011;51920;53.952;10.292;2024-01-06T13:19:41;4.60;;;3.08;;
65315;SDS011;51920;53.952;10.292;2024-01-06T13:22:08;7.32;;;3.80;;
65315;SDS011;51920;53.952;10.292;2024-01-06T13:24:35;7.15;;;3.28;;
65315;SDS011;51920;53.952;10.292;2024-01-06T13:27:02;6.60;;;3.10;;
65315;SDS011;51920;53.952;10.292;2024-01-06T13:29:29;6.30;;;3.20;;
65315;SDS011;51920;53.952;10.292;2024-01-06T13:31:56;5.85;;;2.67;;
65315;SDS011;51920;53.952;10.292;2024-01-06T13:34:24;5.88;;;3.33;;
65315;SDS011;51920;53.952;10.292;2024-01-06T13:36:51;6.15;;;3.28;;
65315;SDS011;51920;53.952;10.292;2024-01-06T13:39:19;4.60;;;2.83;;
65315;SDS011;51920;53.952;10.292;2024-01-06T13:41:49;6.40;;;3.07;;
65315;SDS011;51920;53.952;10.292;2024-01-06T13:44:16;4.45;;;2.95;;
65315;SDS011;51920;53.952;10.292;2024-01-06T13:46:43;5.65;;;3.50;;
65315;SDS011;51920;53.952;10.292;2024-01-06T13:49:14;6.40;;;3.10;;
65315;SDS011;51920;53.952;10.292;2024-01-06T13:51:41;4.88;;;3.53;;
65315;SDS011;51920;53.952;10.292;2024-01-06T13:54:09;6.33;;;3.20;;
65315;SDS011;51920;53.952;10.292;2024-01-06T13:56:36;6.53;;;3.47;;
65315;SDS011;51920;53.952;10.292;2024-01-06T13:59:06;6.20;;;3.60;;
65315;SDS011;51920;53.952;10.292;2024-01-06T14:01:33;5.50;;;3.10;;
65315;SDS011;51920;53.952;10.292;2024-01-06T14:04:00;7.22;;;3.80;;
65315;SDS011;51920;53.952;10.292;2024-01-06T14:06:28;7.23;;;3.70;;
65315;SDS011;51920;53.952;10.292;2024-01-06T14:08:57;4.10;;;2.67;;
65315;SDS011;51920;53.952;10.292;2024-01-06T14:11:25;6.15;;;3.50;;
65315;SDS011;51920;53.952;10.292;2024-01-06T14:13:52;7.00;;;3.50;;
65315;SDS011;51920;53.952;10.292;2024-01-06T14:16:19;8.25;;;4.25;;
65315;SDS011;51920;53.952;10.292;2024-01-06T14:18:47;7.73;;;4.03;;
65315;SDS011;51920;53.952;10.292;2024-01-06T14:21:14;7.10;;;4.32;;
65315;SDS011;51920;53.952;10.292;2024-01-06T14:23:42;8.70;;;4.75;;
65315;SDS011;51920;53.952;10.292;2024-01-06T14:26:08;7.43;;;4.03;;
65315;SDS011;51920;53.952;10.292;2024-01-06T14:28:36;5.75;;;3.20;;
65315;SDS011;51920;53.952;10.292;2024-01-06T14:31:03;6.30;;;3.63;;
65315;SDS011;51920;53.952;10.292;2024-01-06T14:33:30;8.90;;;4.10;;
65315;SDS011;51920;53.952;10.292;2024-01-06T14:35:57;10.20;;;4.80;;
65315;SDS011;51920;53.952;10.292;2024-01-06T14:38:24;8.73;;;4.20;;
65315;SDS011;51920;53.952;10.292;2024-01-06T14:40:51;11.07;;;4.75;;
65315;SDS011;51920;53.952;10.292;2024-01-06T14:43:19;7.33;;;4.17;;